メインページ
METAR-TAF:

METAR-TAF

空港 :

ボゴタ, コロンビア

エルドラド国際空港

緯度: 04-43N, 経度: 074-09W, 海抜: 2547m

現時点の気象観測

当レポートは18分前の06:00(UTC)に作成
の風 4kt
気温 12°C
湿度 88%
気圧 1028 hPa
視程10km以上
高度7000ftの雲は散在している
小霧雨

METAR: SKBO 280600Z 08004KT 9999 -DZ BN018 SCT070 12/10 A3036

時間: 01:18 (06:18 UTC)

予報

当レポートは1時間18分前の05:00(UTC)に作成
予報は28日の 06時(UTC)から 29日の 06時(UTC)まで有効
変向風 2kt
視程: 8000m
高度1700ftの千切れ雲あり
高度7000ftの雲は散在している
近辺で霧
28日の 09時(UTC)から 28日の 12時(UTC)まで一時的に
視程: 3000m
高度1500ftの千切れ雲あり
靄, 雨
28日の 14時(UTC)から 28日の 16時(UTC)まで徐々に
北/北西の風 10kt
28日の 19時(UTC)から 28日の 22時(UTC)まで一時的に
高度1500ftの雲は散在している, 積乱雲.
激しい雷雨, 雨

TAF: SKBO 280500Z 2806/2906 VRB02KT 8000 VCFG BKN017 SCT070 TEMPO 2809/2812 3000 BR RA BKN015 BECMG 2814/2816 33010KT TEMPO 2819/2822 TSRA SCT015CB TX19/2818Z TN10/2811Z

4,000以上の空港の気象観測と天気予報(METAR報とTAF報)

利用可能な観測所は地図上に黄色い丸と赤い丸で示す。

丸の上にカーソルを重ねると観測所名を参照できる。

次にクリックすると気象観測と天気予報を参照できる。

マップの切り替え:黒色「×」印の緑ボタンをクリックして拡大、「-」印の緑ボタンをクリックして縮小、緑色の三角印をクリックして隣りの地図に切り替え


METAR-TAF: